createdAt,value
2019-06-26T00:00:18.075Z,-843.66
2019-06-26T00:01:18.374Z,-847.41
2019-06-26T00:02:18.813Z,-849.25
2019-06-26T00:03:19.255Z,-847.00
2019-06-26T00:04:19.702Z,-843.08
2019-06-26T00:05:20.129Z,-843.22
2019-06-26T00:06:20.613Z,-860.22
2019-06-26T00:07:20.985Z,-855.32
2019-06-26T00:08:21.400Z,-849.29
2019-06-26T00:09:21.822Z,-838.89
2019-06-26T00:10:22.316Z,-840.90
2019-06-26T00:11:22.686Z,-849.78
2019-06-26T00:12:23.153Z,-854.31
2019-06-26T00:13:26.109Z,-843.41
2019-06-26T00:14:24.040Z,-853.64
2019-06-26T00:15:24.527Z,-845.68
2019-06-26T00:16:24.853Z,-849.81
2019-06-26T00:17:25.313Z,-849.36
2019-06-26T00:18:25.970Z,-850.50
2019-06-26T00:19:26.179Z,-853.59
2019-06-26T00:20:26.648Z,-847.29
2019-06-26T00:21:27.048Z,-849.55
2019-06-26T00:22:27.549Z,-843.37
2019-06-26T00:23:27.882Z,-853.92
2019-06-26T00:24:28.349Z,-849.54
2019-06-26T00:25:28.819Z,-846.44
2019-06-26T00:26:29.217Z,-847.86
2019-06-26T00:27:29.667Z,-845.01
2019-06-26T00:28:30.080Z,-900.21
2019-06-26T00:29:30.501Z,-889.76
2019-06-26T00:30:31.016Z,-894.16
2019-06-26T00:31:31.473Z,-893.06
2019-06-26T00:32:31.832Z,-899.27
2019-06-26T00:33:32.227Z,-898.99
2019-06-26T00:34:32.672Z,-895.18
2019-06-26T00:35:33.146Z,-896.52
2019-06-26T00:36:33.546Z,-894.87
2019-06-26T00:37:34.001Z,-894.82
2019-06-26T00:38:34.420Z,-894.72
2019-06-26T00:39:34.993Z,-893.77
2019-06-26T00:40:35.321Z,-899.71
2019-06-26T00:41:35.711Z,-893.58
2019-06-26T00:42:36.165Z,-891.33
2019-06-26T00:43:42.308Z,-899.50
2019-06-26T00:44:38.018Z,-899.33
2019-06-26T00:45:37.480Z,-896.91
2019-06-26T00:46:37.892Z,-900.22
2019-06-26T00:47:38.395Z,-907.55
2019-06-26T00:48:38.748Z,-906.39
2019-06-26T00:49:39.182Z,-898.02
2019-06-26T00:50:39.630Z,-910.08
2019-06-26T00:51:40.046Z,-903.04
2019-06-26T00:52:40.507Z,-909.98
2019-06-26T00:53:40.926Z,-901.89
2019-06-26T00:54:41.363Z,-904.72
2019-06-26T00:55:41.941Z,-905.43
2019-06-26T00:56:42.199Z,-903.25
2019-06-26T00:57:42.670Z,-895.09
2019-06-26T00:58:43.100Z,-900.39
2019-06-26T00:59:43.521Z,-898.42
2019-06-26T01:00:44.060Z,-896.53
2019-06-26T01:01:44.398Z,-904.98
2019-06-26T01:02:44.875Z,-902.97
2019-06-26T01:03:45.314Z,-898.04
2019-06-26T01:04:45.668Z,-906.94
2019-06-26T01:05:46.150Z,-895.21
2019-06-26T01:06:46.550Z,-904.36
2019-06-26T01:07:47.005Z,-900.50
2019-06-26T01:08:47.404Z,-907.18
2019-06-26T01:09:47.855Z,-906.19
2019-06-26T01:10:48.325Z,-895.49
2019-06-26T01:11:48.740Z,-909.26
2019-06-26T01:12:49.225Z,-911.58
2019-06-26T01:13:57.757Z,-911.07
2019-06-26T01:14:51.037Z,-897.18
2019-06-26T01:15:50.493Z,-896.37
2019-06-26T01:16:50.892Z,-906.14
2019-06-26T01:17:51.327Z,-906.27
2019-06-26T01:18:51.775Z,-901.32
2019-06-26T01:19:52.208Z,-895.19
2019-06-26T01:20:52.806Z,-901.58
2019-06-26T01:21:53.109Z,-901.87
2019-06-26T01:22:53.545Z,-914.12
2019-06-26T01:23:53.995Z,-903.29
2019-06-26T01:24:54.400Z,-904.58
2019-06-26T01:25:54.896Z,-907.19
2019-06-26T01:26:55.290Z,-909.75
2019-06-26T01:27:55.720Z,-911.25
2019-06-26T01:28:56.272Z,-900.30
2019-06-26T01:29:56.574Z,-901.43
2019-06-26T01:30:57.050Z,-889.97
2019-06-26T01:31:57.453Z,-913.28
2019-06-26T01:32:57.886Z,-903.00
2019-06-26T01:33:58.361Z,-896.78
2019-06-26T01:34:58.755Z,-899.22
2019-06-26T01:35:59.210Z,-898.64
2019-06-26T01:36:59.682Z,-904.06
2019-06-26T01:38:00.056Z,-895.13
2019-06-26T01:39:00.513Z,-911.81
2019-06-26T01:40:00.931Z,-904.95
2019-06-26T01:41:01.420Z,-899.28
2019-06-26T01:42:01.779Z,-924.22
2019-06-26T01:43:02.320Z,-897.42
2019-06-26T01:44:13.668Z,-912.91
2019-06-26T01:45:04.148Z,-898.26
2019-06-26T01:46:03.539Z,-896.44
2019-06-26T01:47:03.931Z,-905.86
2019-06-26T01:48:04.368Z,-897.80
2019-06-26T01:49:04.837Z,-897.32
2019-06-26T01:50:05.265Z,-897.41
2019-06-26T01:51:05.728Z,-892.80
2019-06-26T01:52:06.122Z,-911.11
2019-06-26T01:53:06.591Z,-901.66
2019-06-26T01:54:07.081Z,-905.90
2019-06-26T01:55:07.436Z,-892.88
2019-06-26T01:56:08.094Z,-910.31
2019-06-26T01:57:08.522Z,-884.05
2019-06-26T01:58:08.738Z,-898.54
2019-06-26T01:59:09.178Z,-910.98
2019-06-26T02:00:09.681Z,-900.79
2019-06-26T02:01:10.105Z,-905.84
2019-06-26T02:02:10.613Z,-902.01
2019-06-26T02:03:10.923Z,-898.36
2019-06-26T02:04:11.357Z,-892.29
2019-06-26T02:05:11.790Z,-904.15
2019-06-26T02:06:12.282Z,-898.09
2019-06-26T02:07:12.651Z,-890.87
2019-06-26T02:08:13.088Z,-906.33
2019-06-26T02:09:13.538Z,-899.15
2019-06-26T02:10:14.077Z,-896.02
2019-06-26T02:11:14.430Z,-902.85
2019-06-26T02:12:14.831Z,-904.68
2019-06-26T02:13:15.266Z,-899.38
2019-06-26T02:14:29.614Z,-901.86
2019-06-26T02:15:17.116Z,-900.46
2019-06-26T02:16:16.581Z,-919.14
2019-06-26T02:17:17.000Z,-871.65
2019-06-26T02:18:17.498Z,-890.31
2019-06-26T02:19:17.877Z,-883.04
2019-06-26T02:20:18.272Z,-878.39
2019-06-26T02:21:18.743Z,-897.05
2019-06-26T02:22:19.307Z,-892.54
2019-06-26T02:23:19.636Z,-893.56
2019-06-26T02:24:20.076Z,-892.96
2019-06-26T02:25:20.490Z,-907.39
2019-06-26T02:26:20.985Z,-901.18
2019-06-26T02:27:21.358Z,-895.70
2019-06-26T02:28:21.816Z,-899.34
2019-06-26T02:29:22.330Z,-905.56
2019-06-26T02:30:22.676Z,-911.09
2019-06-26T02:31:23.140Z,-901.36
2019-06-26T02:32:23.572Z,-916.09
2019-06-26T02:33:23.973Z,-903.74
2019-06-26T02:34:24.480Z,-891.81
2019-06-26T02:35:24.876Z,-880.15
2019-06-26T02:36:25.312Z,-874.67
2019-06-26T02:37:25.721Z,-891.77
2019-06-26T02:38:26.146Z,-891.08
2019-06-26T02:39:26.608Z,-874.62
2019-06-26T02:40:27.024Z,-894.67
2019-06-26T02:41:27.478Z,-894.00
2019-06-26T02:42:27.946Z,-891.69
2019-06-26T02:43:28.425Z,-906.13
2019-06-26T02:44:28.811Z,-903.32
2019-06-26T02:45:29.214Z,-883.67
2019-06-26T02:46:29.671Z,-869.28
2019-06-26T02:47:30.117Z,-894.37
2019-06-26T02:48:30.501Z,-877.98
2019-06-26T02:49:30.955Z,-885.87
2019-06-26T02:50:31.378Z,-864.45
2019-06-26T02:51:32.023Z,-887.41
2019-06-26T02:52:32.265Z,-827.06
2019-06-26T02:53:32.677Z,-834.05
2019-06-26T02:54:33.144Z,-906.91
2019-06-26T02:55:33.583Z,-824.89
2019-06-26T02:56:34.031Z,-882.31
2019-06-26T02:57:34.468Z,-868.93
2019-06-26T02:58:34.891Z,-867.60
2019-06-26T02:59:35.372Z,-821.46
2019-06-26T03:00:35.734Z,-884.94
2019-06-26T03:01:36.195Z,-883.81
2019-06-26T03:02:36.647Z,-897.39
2019-06-26T03:03:37.041Z,-877.52
2019-06-26T03:04:37.497Z,-890.10
2019-06-26T03:05:37.893Z,-891.25
2019-06-26T03:06:38.365Z,-901.73
2019-06-26T03:07:38.865Z,-902.59
2019-06-26T03:08:39.206Z,-911.98
2019-06-26T03:09:39.758Z,-904.02
2019-06-26T03:10:40.081Z,-901.69
2019-06-26T03:11:40.516Z,-847.39
2019-06-26T03:12:40.964Z,-834.01
2019-06-26T03:13:41.390Z,-851.87
2019-06-26T03:14:41.846Z,-841.49
2019-06-26T03:15:42.308Z,-839.28
2019-06-26T03:16:42.709Z,-821.73
2019-06-26T03:17:54.111Z,-811.99
2019-06-26T03:18:44.574Z,-823.88
2019-06-26T03:19:44.026Z,-832.12
2019-06-26T03:20:44.435Z,-822.93
2019-06-26T03:21:44.908Z,-829.73
2019-06-26T03:22:45.298Z,-836.02
2019-06-26T03:23:45.746Z,-830.84
2019-06-26T03:24:46.295Z,-826.14
2019-06-26T03:25:46.609Z,-829.26
2019-06-26T03:26:47.073Z,-829.03
2019-06-26T03:27:47.483Z,-837.71
2019-06-26T03:28:47.916Z,-839.86
2019-06-26T03:29:48.369Z,-844.73
2019-06-26T03:30:48.818Z,-831.88
2019-06-26T03:31:49.277Z,-837.21
2019-06-26T03:32:49.828Z,-834.54
2019-06-26T03:33:50.117Z,-804.67
2019-06-26T03:34:50.551Z,-834.53
2019-06-26T03:35:51.231Z,-819.45
2019-06-26T03:36:51.438Z,-818.76
2019-06-26T03:37:51.880Z,-807.46
2019-06-26T03:38:52.280Z,-816.59
2019-06-26T03:39:52.719Z,-813.28
2019-06-26T03:40:53.240Z,-817.23
2019-06-26T03:41:53.618Z,-827.56
2019-06-26T03:42:54.041Z,-822.58
2019-06-26T03:43:54.459Z,-805.58
2019-06-26T03:44:54.904Z,-816.37
2019-06-26T03:45:55.338Z,-802.58
2019-06-26T03:46:55.778Z,-811.81
2019-06-26T03:47:56.211Z,-827.49
2019-06-26T03:48:56.651Z,-816.00
2019-06-26T03:49:57.028Z,-815.97
2019-06-26T03:50:57.482Z,-814.36
2019-06-26T03:51:57.954Z,-822.75
2019-06-26T03:52:58.374Z,-806.73
2019-06-26T03:53:58.784Z,-823.79
2019-06-26T03:54:59.227Z,-807.92
2019-06-26T03:55:59.665Z,-827.74
2019-06-26T03:57:00.170Z,-816.06
2019-06-26T03:58:00.548Z,-804.01
2019-06-26T03:59:00.975Z,-820.18
2019-06-26T04:00:01.907Z,-790.38
2019-06-26T04:01:01.887Z,-799.76
2019-06-26T04:02:02.311Z,-766.63
2019-06-26T04:03:02.716Z,-782.56
2019-06-26T04:04:03.148Z,-764.48
2019-06-26T04:05:03.603Z,-776.05
2019-06-26T04:06:04.132Z,-804.51
2019-06-26T04:07:04.452Z,-824.79
2019-06-26T04:08:04.892Z,-819.19
2019-06-26T04:09:05.322Z,-816.62
2019-06-26T04:10:05.771Z,-837.42
2019-06-26T04:11:06.217Z,-819.57
2019-06-26T04:12:06.643Z,-832.81
2019-06-26T04:13:07.085Z,-837.50
2019-06-26T04:14:07.566Z,-816.68
2019-06-26T04:15:07.934Z,-819.59
2019-06-26T04:16:08.384Z,-811.34
2019-06-26T04:17:08.810Z,-821.62
2019-06-26T04:18:09.232Z,-823.54
2019-06-26T04:19:09.681Z,-815.37
2019-06-26T04:20:10.111Z,-779.62
2019-06-26T04:21:10.568Z,-799.27
2019-06-26T04:22:11.115Z,-782.94
2019-06-26T04:23:11.415Z,-804.64
2019-06-26T04:24:11.817Z,-779.19
2019-06-26T04:25:12.268Z,-781.20
2019-06-26T04:26:12.720Z,-803.40
2019-06-26T04:27:13.138Z,-805.00
2019-06-26T04:28:13.571Z,-791.44
2019-06-26T04:29:14.006Z,-772.06
2019-06-26T04:30:14.476Z,-781.20
2019-06-26T04:31:14.880Z,-770.77
2019-06-26T04:32:15.318Z,-819.34
2019-06-26T04:33:15.733Z,-824.42
2019-06-26T04:34:16.183Z,-761.94
2019-06-26T04:35:16.618Z,-761.41
2019-06-26T04:36:17.056Z,-777.87
2019-06-26T04:37:17.506Z,-760.84
2019-06-26T04:38:17.997Z,-772.33
2019-06-26T04:39:18.349Z,-782.28
2019-06-26T04:40:20.326Z,-773.77
2019-06-26T04:41:19.230Z,-762.09
2019-06-26T04:42:19.673Z,-713.17
2019-06-26T04:43:20.113Z,-730.13
2019-06-26T04:44:20.566Z,-756.16
2019-06-26T04:45:20.978Z,-726.70
2019-06-26T04:46:21.453Z,-729.68
2019-06-26T04:47:21.900Z,-753.00
2019-06-26T04:48:22.279Z,-755.25
2019-06-26T04:49:22.733Z,-775.99
2019-06-26T04:50:23.147Z,-757.00
2019-06-26T04:51:23.601Z,-773.89
2019-06-26T04:52:24.034Z,-755.25
2019-06-26T04:53:24.439Z,-778.41
2019-06-26T04:54:24.938Z,-726.28
2019-06-26T04:55:25.469Z,-758.07
2019-06-26T04:56:25.765Z,-737.73
2019-06-26T04:57:26.194Z,-768.03
2019-06-26T04:58:26.619Z,-765.78
2019-06-26T04:59:27.082Z,-762.07
2019-06-26T05:00:27.504Z,-770.34
2019-06-26T05:01:27.959Z,-763.42
2019-06-26T05:02:28.410Z,-783.34
2019-06-26T05:03:28.941Z,-787.03
2019-06-26T05:04:29.253Z,-782.42
2019-06-26T05:05:38.898Z,-778.08
2019-06-26T05:06:31.126Z,-781.25
2019-06-26T05:07:30.554Z,-771.94
2019-06-26T05:08:30.974Z,-774.09
2019-06-26T05:09:31.406Z,-785.33
2019-06-26T05:10:31.835Z,-807.79
2019-06-26T05:11:32.381Z,-821.03
2019-06-26T05:12:33.517Z,-818.71
2019-06-26T05:13:33.136Z,-815.63
2019-06-26T05:14:33.810Z,-815.27
2019-06-26T05:15:33.988Z,-806.07
2019-06-26T05:16:34.452Z,-791.98
2019-06-26T05:17:34.911Z,-699.10
2019-06-26T05:18:35.309Z,-742.99
2019-06-26T05:19:35.793Z,-790.25
2019-06-26T05:20:36.137Z,-783.22
2019-06-26T05:21:36.613Z,-813.39
2019-06-26T05:22:37.060Z,-814.56
2019-06-26T05:23:37.484Z,-811.66
2019-06-26T05:24:37.940Z,-808.14
2019-06-26T05:25:38.364Z,-839.92
2019-06-26T05:26:38.821Z,-813.17
2019-06-26T05:27:39.274Z,-809.90
2019-06-26T05:28:39.733Z,-798.04
2019-06-26T05:29:40.108Z,-794.77
2019-06-26T05:30:40.533Z,-795.23
2019-06-26T05:31:40.939Z,-792.34
2019-06-26T05:32:41.402Z,-798.46
2019-06-26T05:33:41.838Z,-802.20
2019-06-26T05:34:42.290Z,-802.47
2019-06-26T05:35:42.719Z,-803.13
2019-06-26T05:36:43.260Z,-806.37
2019-06-26T05:37:43.602Z,-813.61
2019-06-26T05:38:44.576Z,-780.49
2019-06-26T05:39:44.489Z,-783.88
2019-06-26T05:40:44.908Z,-823.51
2019-06-26T05:41:45.344Z,-781.16
2019-06-26T05:42:45.806Z,-792.00
2019-06-26T05:43:46.233Z,-777.69
2019-06-26T05:44:46.840Z,-812.80
2019-06-26T05:45:47.102Z,-802.87
2019-06-26T05:46:47.540Z,-800.63
2019-06-26T05:47:47.995Z,-804.23
2019-06-26T05:48:48.409Z,-801.98
2019-06-26T05:49:48.881Z,-798.87
2019-06-26T05:50:49.295Z,-811.29
2019-06-26T05:51:49.789Z,-799.19
2019-06-26T05:52:50.234Z,-807.03
2019-06-26T05:53:50.568Z,-799.13
2019-06-26T05:54:51.048Z,-792.66
2019-06-26T05:55:51.456Z,-810.53
2019-06-26T05:56:51.957Z,-804.63
2019-06-26T05:57:52.411Z,-786.19
2019-06-26T05:58:52.762Z,-809.46
2019-06-26T05:59:53.213Z,-814.64
2019-06-26T06:00:53.683Z,-795.31
2019-06-26T06:01:54.067Z,-789.23
2019-06-26T06:02:54.509Z,-810.97
2019-06-26T06:03:54.926Z,-792.84
2019-06-26T06:04:55.376Z,-779.24
2019-06-26T06:05:55.775Z,-773.93
2019-06-26T06:06:56.253Z,-791.00
2019-06-26T06:07:56.686Z,-759.42
2019-06-26T06:08:57.187Z,-797.96
2019-06-26T06:09:57.616Z,-852.31
2019-06-26T06:10:58.256Z,-845.08
2019-06-26T06:11:58.445Z,-845.07
2019-06-26T06:12:58.881Z,-861.46
2019-06-26T06:13:59.307Z,-846.79
2019-06-26T06:14:59.742Z,-853.30
2019-06-26T06:16:00.167Z,-868.21
2019-06-26T06:17:00.631Z,-862.94
2019-06-26T06:18:01.180Z,-834.80
2019-06-26T06:19:01.469Z,-826.05
2019-06-26T06:20:02.101Z,-827.98
2019-06-26T06:21:02.337Z,-816.98
2019-06-26T06:22:02.776Z,-810.25
2019-06-26T06:23:03.223Z,-811.24
2019-06-26T06:24:03.656Z,-850.86
2019-06-26T06:25:04.141Z,-838.66
2019-06-26T06:26:04.658Z,-838.46
2019-06-26T06:27:04.981Z,-857.83
2019-06-26T06:28:05.410Z,-858.84
2019-06-26T06:29:05.831Z,-832.05
2019-06-26T06:30:06.286Z,-821.03
2019-06-26T06:31:06.705Z,-833.04
2019-06-26T06:32:07.159Z,-834.12
2019-06-26T06:33:07.575Z,-835.82
2019-06-26T06:34:08.092Z,-820.50
2019-06-26T06:35:08.443Z,-816.54
2019-06-26T06:36:09.634Z,-848.87
2019-06-26T06:37:09.319Z,-824.10
2019-06-26T06:38:09.758Z,-827.63
2019-06-26T06:39:10.159Z,-833.80
2019-06-26T06:40:10.605Z,-864.34
2019-06-26T06:41:11.039Z,-845.94
2019-06-26T06:42:11.552Z,-831.09
2019-06-26T06:43:11.910Z,-810.14
2019-06-26T06:44:12.333Z,-829.23
2019-06-26T06:45:12.756Z,-831.74
2019-06-26T06:46:13.227Z,-842.42
2019-06-26T06:47:13.673Z,-877.58
2019-06-26T06:48:14.111Z,-864.24
2019-06-26T06:49:14.528Z,-872.43
2019-06-26T06:50:15.221Z,-860.36
2019-06-26T06:51:15.391Z,-838.00
2019-06-26T06:52:16.595Z,-838.24
2019-06-26T06:53:16.277Z,-795.75
2019-06-26T06:54:16.697Z,-807.49
2019-06-26T06:55:17.135Z,-855.34
2019-06-26T06:56:17.580Z,-849.69
2019-06-26T06:57:18.017Z,-848.05
2019-06-26T06:58:18.495Z,-867.82
2019-06-26T06:59:18.964Z,-833.39
2019-06-26T07:00:19.317Z,-835.89
2019-06-26T07:01:19.753Z,-833.79
2019-06-26T07:02:20.585Z,-846.03
2019-06-26T07:03:20.672Z,-841.54
2019-06-26T07:04:21.089Z,-833.04
2019-06-26T07:05:21.522Z,-841.77
2019-06-26T07:06:21.982Z,-830.01
2019-06-26T07:07:22.508Z,-828.26
2019-06-26T07:08:22.841Z,-873.93
2019-06-26T07:09:23.261Z,-868.41
2019-06-26T07:10:23.695Z,-845.55
2019-06-26T07:11:24.148Z,-839.29
2019-06-26T07:12:24.576Z,-826.84
2019-06-26T07:13:25.025Z,-832.12
2019-06-26T07:14:25.452Z,-834.81
2019-06-26T07:15:25.961Z,-858.38
2019-06-26T07:16:26.324Z,-839.69
2019-06-26T07:17:26.748Z,-840.71
2019-06-26T07:18:27.178Z,-852.52
2019-06-26T07:19:27.613Z,-860.83
2019-06-26T07:20:28.045Z,-868.69
2019-06-26T07:21:28.497Z,-867.73
2019-06-26T07:22:28.931Z,-875.75
2019-06-26T07:23:29.404Z,-868.17
2019-06-26T07:24:29.758Z,-866.69
2019-06-26T07:25:30.212Z,-873.17
2019-06-26T07:26:30.659Z,-873.19
2019-06-26T07:27:31.095Z,-884.60
2019-06-26T07:28:31.539Z,-868.38
2019-06-26T07:29:31.967Z,-877.00
2019-06-26T07:30:32.357Z,-855.66
2019-06-26T07:31:32.892Z,-864.81
2019-06-26T07:32:33.249Z,-872.92
2019-06-26T07:33:33.717Z,-843.66
2019-06-26T07:34:34.113Z,-825.77
2019-06-26T07:35:34.579Z,-894.36
2019-06-26T07:36:35.000Z,-879.83
2019-06-26T07:37:35.449Z,-868.84
2019-06-26T07:38:35.883Z,-875.61
2019-06-26T07:39:36.340Z,-837.74
2019-06-26T07:40:36.795Z,-830.23
2019-06-26T07:41:37.187Z,-862.02
2019-06-26T07:42:37.623Z,-865.44
2019-06-26T07:43:38.056Z,-870.63
2019-06-26T07:44:38.472Z,-877.92
2019-06-26T07:45:38.916Z,-856.71
2019-06-26T07:46:39.349Z,-884.49
2019-06-26T07:47:43.504Z,-871.57
2019-06-26T07:48:40.362Z,-873.51
2019-06-26T07:49:40.651Z,-871.04
2019-06-26T07:50:41.076Z,-879.57
2019-06-26T07:51:41.506Z,-874.67
2019-06-26T07:52:41.956Z,-872.84
2019-06-26T07:53:42.402Z,-875.03
2019-06-26T07:54:42.829Z,-887.26
2019-06-26T07:55:43.616Z,-905.66
2019-06-26T07:56:43.807Z,-896.36
2019-06-26T07:57:44.138Z,-895.26
2019-06-26T07:58:44.597Z,-878.11
2019-06-26T07:59:45.034Z,-893.26
2019-06-26T08:00:45.486Z,-890.41
2019-06-26T08:01:45.917Z,-811.83
2019-06-26T08:02:46.334Z,-858.49
2019-06-26T08:03:46.786Z,-866.21
2019-06-26T08:04:47.254Z,-891.90
2019-06-26T08:05:47.635Z,-869.51
2019-06-26T08:06:48.091Z,-874.67
2019-06-26T08:07:48.522Z,-870.07
2019-06-26T08:08:48.926Z,-843.39
2019-06-26T08:09:49.389Z,-830.62
2019-06-26T08:10:49.829Z,-863.89
2019-06-26T08:11:50.277Z,-795.28
2019-06-26T08:12:50.842Z,-821.45
2019-06-26T08:13:51.149Z,-837.80
2019-06-26T08:14:51.545Z,-843.69
2019-06-26T08:15:51.986Z,-826.21
2019-06-26T08:16:52.473Z,-853.71
2019-06-26T08:18:00.691Z,-857.50
2019-06-26T08:18:54.316Z,-850.90
2019-06-26T08:19:53.765Z,-844.11
2019-06-26T08:21:10.842Z,-836.45
2019-06-26T08:21:55.684Z,-833.89
2019-06-26T08:22:55.063Z,-827.25
2019-06-26T08:23:55.473Z,-846.56
2019-06-26T08:24:55.936Z,-832.79
2019-06-26T08:25:56.335Z,-823.35
2019-06-26T08:26:56.790Z,-812.77
2019-06-26T08:27:57.241Z,-841.62
2019-06-26T08:28:57.672Z,-849.98
2019-06-26T08:29:58.236Z,-842.29
2019-06-26T08:30:58.509Z,-840.62
2019-06-26T08:31:59.205Z,-823.69
2019-06-26T08:32:59.417Z,-832.01
2019-06-26T08:33:59.822Z,-829.90
2019-06-26T08:35:00.322Z,-850.37
2019-06-26T08:36:00.694Z,-837.95
2019-06-26T08:37:01.152Z,-842.85
2019-06-26T08:38:09.767Z,-861.43
2019-06-26T08:39:02.998Z,-852.61
2019-06-26T08:40:02.448Z,-855.71
2019-06-26T08:41:02.865Z,-862.53
2019-06-26T08:42:03.328Z,-849.77
2019-06-26T08:43:03.732Z,-851.34
2019-06-26T08:44:04.179Z,-844.78
2019-06-26T08:45:04.664Z,-857.44
2019-06-26T08:46:05.102Z,-857.23
2019-06-26T08:47:05.475Z,-862.89
2019-06-26T08:48:17.329Z,-838.00
2019-06-26T08:49:20.949Z,-848.24
2019-06-26T08:50:07.783Z,-826.37
2019-06-26T08:51:07.216Z,-826.16
2019-06-26T08:52:07.654Z,-814.25
2019-06-26T08:53:08.088Z,-835.87
2019-06-26T08:54:08.552Z,-825.49
2019-06-26T08:55:08.940Z,-814.63
2019-06-26T08:56:09.372Z,-841.74
2019-06-26T08:57:09.812Z,-843.17
2019-06-26T08:58:10.269Z,-848.67
2019-06-26T08:59:10.671Z,-867.18
2019-06-26T09:00:11.201Z,-858.55
2019-06-26T09:01:11.553Z,-794.04
2019-06-26T09:02:12.028Z,-851.74
2019-06-26T09:03:12.529Z,-848.30
2019-06-26T09:04:12.878Z,-873.34
2019-06-26T09:05:13.318Z,-861.08
2019-06-26T09:06:13.747Z,-822.37
2019-06-26T09:07:14.198Z,-840.87
2019-06-26T09:08:14.775Z,-824.84
2019-06-26T09:09:15.087Z,-812.97
2019-06-26T09:10:15.553Z,-836.32
2019-06-26T09:11:16.073Z,-867.80
2019-06-26T09:12:16.391Z,-826.38
2019-06-26T09:13:16.875Z,-825.02
2019-06-26T09:14:17.265Z,-825.75
2019-06-26T09:15:17.716Z,-846.42
2019-06-26T09:16:18.126Z,-827.10
2019-06-26T09:17:18.562Z,-821.27
2019-06-26T09:18:31.096Z,-802.68
2019-06-26T09:19:20.615Z,-835.82
2019-06-26T09:20:19.924Z,-837.51
2019-06-26T09:21:20.317Z,-791.76
2019-06-26T09:22:20.769Z,-838.14
2019-06-26T09:23:21.244Z,-822.93
2019-06-26T09:24:21.637Z,-848.97
2019-06-26T09:25:22.665Z,-859.60
2019-06-26T09:26:22.508Z,-833.61
2019-06-26T09:27:22.983Z,-802.64
2019-06-26T09:28:23.395Z,-819.48
2019-06-26T09:29:24.200Z,-807.12
2019-06-26T09:30:24.258Z,-810.47
2019-06-26T09:31:24.667Z,-817.99
2019-06-26T09:32:25.090Z,-843.92
2019-06-26T09:33:25.559Z,-837.46
2019-06-26T09:34:25.976Z,-848.76
2019-06-26T09:35:26.534Z,-863.81
2019-06-26T09:36:26.822Z,-847.39
2019-06-26T09:37:27.265Z,-863.31
2019-06-26T09:38:27.741Z,-873.54
2019-06-26T09:39:28.115Z,-856.21
2019-06-26T09:40:31.595Z,-810.19
2019-06-26T09:41:29.052Z,-835.92
2019-06-26T09:42:29.447Z,-805.09
2019-06-26T09:43:29.955Z,-824.24
2019-06-26T09:44:30.371Z,-841.86
2019-06-26T09:45:30.769Z,-829.46
2019-06-26T09:46:31.181Z,-836.91
2019-06-26T09:47:31.607Z,-804.64
2019-06-26T09:48:32.100Z,-815.24
2019-06-26T09:49:32.536Z,-854.63
2019-06-26T09:50:32.925Z,-849.69
2019-06-26T09:51:33.381Z,-815.91
2019-06-26T09:52:33.917Z,-679.56
2019-06-26T09:53:45.939Z,-838.09
2019-06-26T09:54:35.649Z,-803.81
2019-06-26T09:55:35.114Z,-825.90
2019-06-26T09:56:35.546Z,-805.76
2019-06-26T09:57:36.063Z,-823.78
2019-06-26T09:58:36.439Z,-863.22
2019-06-26T09:59:36.852Z,-808.24
2019-06-26T10:00:37.431Z,-839.67
2019-06-26T10:01:37.734Z,-839.60
2019-06-26T10:02:38.195Z,-835.12
2019-06-26T10:03:38.609Z,-818.82
2019-06-26T10:04:39.028Z,-851.28
2019-06-26T10:05:39.450Z,-821.50
2019-06-26T10:06:39.883Z,-805.31
2019-06-26T10:07:40.357Z,-783.88
2019-06-26T10:08:40.878Z,-816.32
2019-06-26T10:09:41.245Z,-809.63
2019-06-26T10:10:41.623Z,-839.00
2019-06-26T10:11:42.134Z,-823.46
2019-06-26T10:12:42.539Z,-827.59
2019-06-26T10:13:42.965Z,-822.05
2019-06-26T10:14:47.838Z,-834.71
2019-06-26T10:15:43.825Z,-810.33
2019-06-26T10:16:44.326Z,-831.70
2019-06-26T10:17:44.692Z,-811.88
2019-06-26T10:18:45.149Z,-815.35
2019-06-26T10:19:45.568Z,-817.24
2019-06-26T10:20:46.005Z,-830.09
2019-06-26T10:21:46.467Z,-842.98
2019-06-26T10:22:46.865Z,-830.84
2019-06-26T10:23:47.309Z,-825.88
2019-06-26T10:24:47.814Z,-845.83
2019-06-26T10:25:48.203Z,-843.47
2019-06-26T10:26:48.669Z,-856.61
2019-06-26T10:27:49.069Z,-814.36
2019-06-26T10:28:49.529Z,-823.40
2019-06-26T10:29:49.922Z,-837.80
2019-06-26T10:30:50.417Z,-820.71
2019-06-26T10:31:50.851Z,-818.52
2019-06-26T10:32:51.255Z,-789.71
2019-06-26T10:33:51.805Z,-808.99
2019-06-26T10:34:52.172Z,-830.63
2019-06-26T10:35:52.544Z,-841.33
2019-06-26T10:36:53.026Z,-824.78
2019-06-26T10:37:53.423Z,-827.49
2019-06-26T10:38:53.868Z,-814.05
2019-06-26T10:39:54.284Z,-797.48
2019-06-26T10:40:54.711Z,-838.08
2019-06-26T10:41:55.393Z,-818.36
2019-06-26T10:42:55.591Z,-839.39
2019-06-26T10:43:56.044Z,-811.46
2019-06-26T10:44:56.463Z,-827.74
2019-06-26T10:45:56.905Z,-823.59
2019-06-26T10:46:57.399Z,-791.00
2019-06-26T10:47:57.793Z,-816.42
2019-06-26T10:48:58.243Z,-825.46
2019-06-26T10:49:58.751Z,-821.21
2019-06-26T10:50:59.228Z,-824.02
2019-06-26T10:51:59.570Z,-836.47
2019-06-26T10:52:59.960Z,-843.28
2019-06-26T10:54:00.395Z,-840.38
2019-06-26T10:55:00.842Z,-810.82
2019-06-26T10:56:01.278Z,-813.37
2019-06-26T10:57:01.723Z,-814.64
2019-06-26T10:58:02.187Z,-817.44
2019-06-26T10:59:02.574Z,-826.66
2019-06-26T11:00:02.994Z,-818.83
2019-06-26T11:01:03.445Z,-832.83
2019-06-26T11:02:03.881Z,-827.10
2019-06-26T11:03:04.284Z,-814.74
2019-06-26T11:04:04.754Z,-842.48
2019-06-26T11:05:05.195Z,-839.26
2019-06-26T11:06:05.631Z,-852.34
2019-06-26T11:07:06.090Z,-814.87
2019-06-26T11:08:06.495Z,-804.49
2019-06-26T11:09:06.953Z,-804.51
2019-06-26T11:10:07.422Z,-837.55
2019-06-26T11:11:07.834Z,-833.12
2019-06-26T11:12:08.295Z,-808.52
2019-06-26T11:13:08.705Z,-845.06
2019-06-26T11:14:09.158Z,-847.39
2019-06-26T11:15:09.687Z,-828.83
2019-06-26T11:16:10.047Z,-873.66
2019-06-26T11:17:10.496Z,-830.11
2019-06-26T11:18:10.914Z,-810.48
2019-06-26T11:19:11.344Z,-841.42
2019-06-26T11:20:11.815Z,-840.47
2019-06-26T11:21:12.251Z,-820.96
2019-06-26T11:22:12.722Z,-791.95
2019-06-26T11:23:13.264Z,-830.14
2019-06-26T11:24:13.543Z,-837.07
2019-06-26T11:25:14.028Z,-804.96
2019-06-26T11:26:14.418Z,-807.16
2019-06-26T11:27:14.869Z,-815.48
2019-06-26T11:28:15.288Z,-812.07
2019-06-26T11:29:15.733Z,-814.82
2019-06-26T11:30:16.186Z,-852.87
2019-06-26T11:31:16.736Z,-805.06
2019-06-26T11:32:17.061Z,-851.56
2019-06-26T11:33:17.485Z,-825.25
2019-06-26T11:34:17.939Z,-802.86
2019-06-26T11:35:18.353Z,-823.23
2019-06-26T11:36:18.930Z,-790.16
2019-06-26T11:37:22.645Z,-806.29
2019-06-26T11:38:19.676Z,-806.99
2019-06-26T11:39:20.182Z,-864.53
2019-06-26T11:40:20.545Z,-814.70
2019-06-26T11:41:20.959Z,-826.95
2019-06-26T11:42:21.431Z,-848.26
2019-06-26T11:43:21.860Z,-796.94
2019-06-26T11:44:22.314Z,-807.46
2019-06-26T11:45:22.751Z,-821.38
2019-06-26T11:46:23.164Z,-835.26
2019-06-26T11:47:23.659Z,-761.04
2019-06-26T11:48:24.021Z,-767.40
2019-06-26T11:49:24.470Z,-813.99
2019-06-26T11:50:25.162Z,-792.64
2019-06-26T11:51:25.338Z,-810.80
2019-06-26T11:52:25.793Z,-806.72
2019-06-26T11:53:26.195Z,-821.30
2019-06-26T11:54:26.667Z,-833.68
2019-06-26T11:55:27.138Z,-827.02
2019-06-26T11:56:27.608Z,-810.42
2019-06-26T11:57:28.027Z,-859.87
2019-06-26T11:58:28.506Z,-843.85
2019-06-26T11:59:29.077Z,-859.29
2019-06-26T12:00:29.290Z,-830.37
2019-06-26T12:12:02.538Z,-743.01
2019-06-26T12:12:37.895Z,-830.92
2019-06-26T12:13:38.313Z,-856.47
2019-06-26T12:17:47.464Z,-696.22
2019-06-26T12:18:09.866Z,-861.21
2019-06-26T12:19:10.395Z,-821.95
2019-06-26T12:20:18.370Z,-829.33
2019-06-26T12:21:12.219Z,-832.06
2019-06-26T12:22:11.716Z,-841.41
2019-06-26T12:23:12.072Z,-821.53